Washington, DC (20016)

5:17 AM EST on December 22, 2014 (GMT -0500)
Kent | Change Station
CLOSE
Current Station
Personal Weather Station
Location: Washington, DC
Elevation: 272 ft
Nearby Weather Stations

Elev 272 ft 38.93 °N, 77.10 °W | Updated 11 seconds ago

Overcast
Overcast
31.2 °F
Feels Like 31 °F
N
0.0
Wind Variable Wind from SSE
Gusts 1.0 mph

Today
High -- | Low -- °F
--% Chance of Precip.
Yesterday
High -- | Low -- °F
Precip. -- in
7:23 AM 4:50 PM
New Moon, 0% visible
Pressure 30.30 in
Visibility 6.0 miles
Clouds Overcast 4700 ft
Windchill 31 °F
Dew Point 26 °F
Humidity 81%
Rainfall 0.00 in
Snow Depth Not available.
UV 0 out of 12
Pollen .10 out of 12
Air Quality Not available.
Flu Activity Not available.
METAR KDCA 220952Z 03006KT 6SM HZ OVC047 01/M04 A3029 RMK AO2 SLP258 T00111044

More Conditions Fewer Conditions

Pressure 30.30 in
Visibility 6.0 miles
Clouds Overcast 4700 ft
Windchill 31 °F
Dew Point 26 °F
Humidity 81%
Rainfall 0.00 in
Snow Depth Not available.
UV 0 out of 12
Pollen .10 out of 12
Air Quality Not available.
Flu Activity Not available.
METAR KDCA 220952Z 03006KT 6SM HZ OVC047 01/M04 A3029 RMK AO2 SLP258 T00111044

More Conditions Fewer Conditions

10-Day Weather Forecast

Almanac

Astronomy

Dec. 22, 2014 Rise Set
Actual Time
Civil Twilight
Nautical Twilight
Astronomical Twilight
Moon
Length of Visible Light
Length of Day
Tomorrow will be .
, % of the Moon is Illuminated

Today's Extremes

State Highs State Lows

Community

WunderPhotos

Upload Photos

1,779,583 photos uploaded!

WunderBlogs® & News

Nearby

Air Quality

  Air Quality AQ Index Pollutant
Not available.

Snow Depth

Station Depth Elevation

Earthquake Activity

City Distance Mag. Time & Date
Minimum magnitude displayed is 2.5.

Coastal Water Temperatures

Place Temperature

Nearby Weather Stations